• Join FlightAware (Why Join?)
  • Login
  • US Flag 
12:29PM EDT


 

Airport Tracker/Info


-or-


 

Live Flight TrackerFlight Track Log ✈ N693PD ✈ 11-Jul-2013 ✈ KLNN - KRYY

Flight Track Log - Related Links

Times and Time Zones

All times are in EDT time to prevent confusion due to time zone crossing. See the N693PD flight status page for this flight to view local times or setup timezone preferences in your user account.

Time Position Orientation Groundspeed Altitude Reporting Facility
EDT Latitude Longitude Course Direction KTS MPH feet Rate Location/Type
02:59PM 41.6506 -81.4111 236° Southwest 172 198 2,400  Level Cleveland Center
03:01PM 41.5839 -81.4075 178° South 188 216 4,600 1,500 Climbing Cleveland Center
03:01PM 41.5503 -81.4211 197° South 191 220 5,400 1,500 Climbing Cleveland Center
03:02PM 41.5294 -81.4319 201° Southwest 190 219 6,300 1,620 Climbing Cleveland Center
03:03PM 41.4606 -81.4642 199° South 197 227 8,700 1,500 Climbing Cleveland Center
03:04PM 41.4225 -81.5025 217° Southwest 182 209 10,000 1,260 Climbing Cleveland Center
03:05PM 41.4957 -81.8085 236° Southwest  Level FlightAware Approximate
03:05PM 41.3828 -81.5406 216° Southwest 182 209 11,300  Level Cleveland Center
03:06PM 41.3406 -81.5869 220° Southwest 182 209 12,700 1,380 Climbing Cleveland Center
03:07PM 41.3006 -81.6278 217° Southwest 187 215 14,100 1,380 Climbing Cleveland Center
03:08PM 41.2564 -81.6742 218° Southwest 187 215 15,500 1,500 Climbing Cleveland Center
03:09PM 41.2206 -81.7150 221° Southwest 187 215 17,100 1,260 Climbing Cleveland Center
03:10PM 41.1828 -81.7556 219° Southwest 182 209 18,100 1,020 Climbing Cleveland Center
03:11PM 41.1447 -81.7936 217° Southwest 182 209 19,200 1,020 Climbing Cleveland Center
03:12PM 41.1047 -81.8369 219° Southwest 191 220 20,200 960 Climbing Cleveland Center
03:13PM 41.0667 -81.8747 217° Southwest 191 220 21,200 900 Climbing Cleveland Center
03:14PM 41.0308 -81.9153 220° Southwest 185 213 22,000 360 Climbing Cleveland Center
03:15PM 40.9864 -81.9611 218° Southwest 185 213 22,000  Level Cleveland Center
03:16PM 40.9464 -82.0017 217° Southwest 198 228 22,000  Level Cleveland Center
03:18PM 40.8178 -82.0728 203° Southwest 224 258 22,000  Level Indianapolis Center
03:19PM 40.7564 -82.0972 197° South 227 261 22,000  Level Indianapolis Center
03:20PM 40.6969 -82.1214 197° South 224 258 22,000  Level Indianapolis Center
03:22PM 40.6256 -82.1494 197° South 227 261 22,000  Level Indianapolis Center
03:23PM 40.5661 -82.1719 196° South 221 254 22,000  Level Indianapolis Center
03:24PM 40.5056 -82.1969 197° South 226 260 22,000  Level Indianapolis Center
03:25PM 40.4444 -82.2203 196° South 225 259 22,000  Level Indianapolis Center
03:26PM 40.3839 -82.2442 197° South 225 259 22,000  Level Indianapolis Center
03:27PM 40.3225 -82.2697 198° South 230 265 22,000  Level Indianapolis Center
03:28PM 40.2608 -82.2928 196° South 230 265 22,000  Level Indianapolis Center
03:29PM 40.1986 -82.3172 197° South 226 260 22,000  Level Indianapolis Center
03:30PM 40.1369 -82.3425 197° South 229 264 22,000  Level Indianapolis Center
03:31PM 40.0650 -82.3700 196° South 228 262 22,000  Level Indianapolis Center
03:32PM 40.0036 -82.3931 196° South 227 261 22,000  Level Indianapolis Center
03:33PM 39.9419 -82.4183 197° South 230 265 22,000  Level Indianapolis Center
03:34PM 39.8806 -82.4414 196° South 228 262 22,000  Level Indianapolis Center
03:35PM 39.8186 -82.4661 197° South 230 265 22,000  Level Indianapolis Center
03:36PM 39.7564 -82.4889 196° South 229 264 22,000  Level Indianapolis Center
03:37PM 39.6944 -82.5133 197° South 229 264 22,000  Level Indianapolis Center
03:38PM 39.6222 -82.5408 196° South 230 265 22,000  Level Indianapolis Center
03:39PM 39.5608 -82.5639 196° South 227 261 22,000  Level Indianapolis Center
03:40PM 39.4994 -82.5878 197° South 228 262 22,000  Level Indianapolis Center
03:41PM 39.4367 -82.6108 196° South 229 264 22,000  Level Indianapolis Center
03:42PM 39.3731 -82.6361 197° South 234 269 22,000  Level Indianapolis Center
03:43PM 39.3106 -82.6603 197° South 234 269 22,000  Level Indianapolis Center
03:44PM 39.2472 -82.6833 196° South 233 268 22,000  Level Indianapolis Center
03:45PM 39.1847 -82.7075 197° South 233 268 22,000  Level Indianapolis Center
03:46PM 39.1214 -82.7303 196° South 232 267 22,000  Level Indianapolis Center
03:48PM 39.0472 -82.7554 195° South  Level FlightAware Approximate
03:48PM 38.9833 -82.7831 195° South 234 269 22,000  Level Indianapolis Center
03:49PM 38.9203 -82.8072 197° South 236 272 22,000  Level Indianapolis Center
03:50PM 38.8586 -82.8306 196° South 233 268 22,000  Level Indianapolis Center
03:52PM 38.7944 -82.8542 196° South 237 273 22,000  Level Indianapolis Center
03:53PM 38.7325 -82.8772 196° South 233 268 22,000  Level Indianapolis Center
03:54PM 38.6550 -82.9075 197° South 241 277 22,000  Level Indianapolis Center
03:55PM 38.5942 -82.9281 195° South 235 270 22,000  Level Indianapolis Center
03:56PM 38.5311 -82.9525 197° South 235 270 22,000  Level Indianapolis Center
03:57PM 38.4681 -82.9769 197° South 236 272 22,000  Level Indianapolis Center
03:58PM 38.3942 -83.0025 195° South 235 270 22,000  Level Indianapolis Center
03:59PM 38.3322 -83.0269 197° South 234 269 22,000  Level Indianapolis Center
04:00PM 38.2692 -83.0497 196° South 233 268 22,000  Level Indianapolis Center
04:01PM 38.2047 -83.0719 195° South 238 274 22,000  Level Indianapolis Center
04:02PM 38.1417 -83.0975 198° South 238 274 22,000  Level Indianapolis Center
04:03PM 38.0772 -83.1217 196° South 240 276 22,000  Level Indianapolis Center
04:04PM 38.0019 -83.1492 196° South 241 277 22,000  Level Indianapolis Center
04:05PM 37.9367 -83.1722 196° South 242 278 22,000  Level Indianapolis Center
04:06PM 37.8700 -83.1967 196° South 248 285 22,000  Level Indianapolis Center
04:07PM 37.8033 -83.2214 196° South 249 287 22,000  Level Indianapolis Center
04:08PM 37.7364 -83.2450 196° South 249 287 22,000  Level Indianapolis Center
04:09PM 37.6589 -83.2728 196° South 247 284 22,000  Level Indianapolis Center
04:10PM 37.5925 -83.2972 196° South 248 285 22,000  Level Indianapolis Center
04:11PM 37.5269 -83.3219 197° South 247 284 22,000  Level Indianapolis Center
04:12PM 37.4611 -83.3444 195° South 245 282 22,000  Level Indianapolis Center
04:13PM 37.3944 -83.3689 196° South 250 288 22,000  Level Indianapolis Center
04:14PM 37.3178 -83.3969 196° South 246 283 22,000  Level Indianapolis Center
04:15PM 37.2517 -83.4206 196° South 247 284 22,000  Level Indianapolis Center
04:16PM 37.1850 -83.4442 196° South 248 285 22,000  Level Indianapolis Center
04:17PM 37.1192 -83.4683 196° South 248 285 22,000  Level Indianapolis Center
04:18PM 37.0525 -83.4925 196° South 249 287 22,000  Level Indianapolis Center
04:19PM 36.9739 -83.5194 195° South 252 290 22,000  Level Indianapolis Center
04:20PM 36.9072 -83.5436 196° South 250 288 22,000  Level Indianapolis Center
04:21PM 36.8400 -83.5675 196° South 251 289 22,000  Level Indianapolis Center
04:23PM 36.7717 -83.5914 196° South 253 291 22,000  Level Indianapolis Center
04:24PM 36.7033 -83.6156 196° South 254 292 22,000  Level Indianapolis Center
04:25PM 36.6211 -83.6286 187° South 255 293 22,000  Level Indianapolis Center
04:26PM 36.5494 -83.6411 188° South 259 298 22,000  Level Indianapolis Center
04:27PM 36.4842 -83.6519 188° South 260 299 22,000  Level Indianapolis Center
04:28PM 36.3972 -83.6656 187° South 262 302 22,000  Level Indianapolis Center
04:29PM 36.3258 -83.6789 189° South 260 299 22,000  Level Indianapolis Center
04:30PM 36.2528 -83.6919 188° South 264 304 22,000  Level Indianapolis Center
04:31PM 36.1803 -83.7039 188° South 264 304 22,000  Level Indianapolis Center
04:32PM 36.1206 -83.7147 188° South 258 297 22,000  Level Atlanta Center
04:33PM 36.0517 -83.7306 191° South 263 303 22,000  Level Atlanta Center
04:34PM 35.9786 -83.7386 185° South 263 303 22,000  Level Atlanta Center
04:35PM 35.9056 -83.7542 190° South 263 303 22,000  Level Atlanta Center
04:36PM 35.8328 -83.7647 187° South 263 303 22,000  Level Atlanta Center
04:37PM 35.7597 -83.7778 188° South 263 303 22,000  Level Atlanta Center
04:38PM 35.6950 -83.7881 187° South 263 303 22,000 -300 Level Atlanta Center
04:39PM 35.6200 -83.8011 188° South 268 308 21,500 -660 Descending Atlanta Center
04:40PM 35.5428 -83.8142 188° South 280 322 20,700 -840 Descending Atlanta Center
04:41PM 35.4594 -83.8297 189° South 292 336 19,900 -900 Descending Atlanta Center
04:42PM 35.3758 -83.8400 186° South 298 343 19,000 -900 Descending Atlanta Center
04:43PM 35.2967 -83.8531 188° South 293 337 18,200 -900 Descending Atlanta Center
04:44PM 35.2175 -83.8683 189° South 293 337 17,300 -900 Descending Atlanta Center
04:45PM 35.1361 -83.8814 187° South 293 337 16,400 -900 Descending Atlanta Center
04:46PM 35.0547 -83.8967 189° South 293 337 15,500 -900 Descending Atlanta Center
04:47PM 34.9756 -83.9069 186° South 293 337 14,600 -900 Descending Atlanta Center
04:48PM 34.8942 -83.9222 189° South 293 337 13,800 -900 Descending Atlanta Center
04:49PM 34.8106 -83.9350 187° South 293 337 12,900 -900 Descending Atlanta Center
04:50PM 34.7333 -83.9478 188° South 293 337 12,000 -900 Descending Atlanta Center
04:51PM 34.6561 -83.9581 186° South 293 337 11,100 -900 Descending Atlanta Center
04:52PM 34.5789 -83.9706 188° South 293 337 10,200 -840 Descending Atlanta Center
04:53PM 34.4933 -83.9833 187° South 293 337 9,500 -720 Descending Atlanta Center
04:54PM 34.4225 -84.0161 201° Southwest 288 331 8,800 -720 Descending Atlanta Center
04:55PM 34.3536 -84.0539 204° Southwest 282 325 8,100 -720 Descending Atlanta Center
04:55PM 34.2847 -84.0917 204° Southwest 273 314 7,400 -600 Descending Atlanta Center
04:57PM 34.2200 -84.1392 211° Southwest 273 314 6,900 -540 Descending Atlanta Center
04:58PM 34.1614 -84.1894 215° Southwest 273 314 6,400 -900 Descending Atlanta Center
04:59PM 34.1050 -84.2344 213° Southwest 262 302 5,100 -1,380 Descending Atlanta Center
04:59PM 34.0667 -84.2667 215° Southwest 227 261 3,900 -1,200 Descending Atlanta TRACON
05:00PM 34.0333 -84.3333 239° Southwest 213 245 2,900 -480 Descending Atlanta TRACON
05:01PM 34.0167 -84.3833 248° West 168 193 3,000  Climbing Atlanta TRACON
05:02PM 34.0167 -84.4333 270° West 142 163 2,900 -240 Descending Atlanta TRACON
05:03PM 34.0167 -84.4833 270° West 137 158 2,600 -480 Descending Atlanta TRACON
05:04PM 34.0167 -84.5167 270° West 137 158 2,000 -600 Descending Atlanta TRACON
05:05PM 34.0167 -84.5667 270° West 122 140 1,400 -600 Descending Atlanta TRACON